createdAt,value
2023-03-15T04:54:25.638Z,22.93
2023-03-15T04:55:25.609Z,22.92
2023-03-15T04:56:25.594Z,22.89
2023-03-15T04:57:25.569Z,22.86
2023-03-15T04:58:25.549Z,22.90
2023-03-15T04:59:25.510Z,22.86
2023-03-15T05:00:25.527Z,22.87
2023-03-15T05:01:25.465Z,22.92
2023-03-15T05:02:25.483Z,22.86
2023-03-15T05:03:25.414Z,22.89
2023-03-15T05:04:25.372Z,22.81
2023-03-15T05:05:25.350Z,22.89
2023-03-15T05:06:25.320Z,22.86
2023-03-15T05:07:25.310Z,22.87
2023-03-15T05:08:25.276Z,22.87
2023-03-15T05:09:25.246Z,22.89
2023-03-15T05:10:25.233Z,22.89
2023-03-15T05:11:25.200Z,22.87
2023-03-15T05:12:25.190Z,22.80
2023-03-15T05:13:25.158Z,22.86
2023-03-15T05:14:25.137Z,22.86
2023-03-15T05:15:25.197Z,22.90
2023-03-15T05:16:25.167Z,22.86
2023-03-15T05:17:25.057Z,22.87
2023-03-15T05:18:25.037Z,22.90
2023-03-15T05:19:24.995Z,22.90
2023-03-15T05:20:24.964Z,22.92
2023-03-15T05:21:24.945Z,22.84
2023-03-15T05:22:24.924Z,22.92
2023-03-15T05:23:24.973Z,22.92
2023-03-15T05:24:24.866Z,22.83
2023-03-15T05:25:24.833Z,22.87
2023-03-15T05:26:24.833Z,22.87
2023-03-15T05:27:24.812Z,22.87
2023-03-15T05:28:24.783Z,22.90
2023-03-15T05:29:24.760Z,22.77
2023-03-15T05:30:24.719Z,22.74
2023-03-15T05:31:24.738Z,22.74
2023-03-15T05:32:24.701Z,22.86
2023-03-15T05:33:24.669Z,22.75
2023-03-15T05:34:24.626Z,22.68
2023-03-15T05:35:24.626Z,22.83
2023-03-15T05:36:24.572Z,22.80
2023-03-15T05:37:24.549Z,22.84
2023-03-15T05:38:24.533Z,22.86
2023-03-15T05:39:24.485Z,22.86
2023-03-15T05:40:24.468Z,22.89
2023-03-15T05:41:24.461Z,22.86
2023-03-15T05:42:24.427Z,22.84
2023-03-15T05:43:24.392Z,22.80
2023-03-15T05:44:24.388Z,22.87
2023-03-15T05:45:24.360Z,22.84
2023-03-15T05:46:24.338Z,22.86
2023-03-15T05:47:24.321Z,22.84
2023-03-15T05:48:24.289Z,22.87
2023-03-15T05:49:24.267Z,22.80
2023-03-15T05:50:24.294Z,22.86
2023-03-15T05:51:24.233Z,22.84
2023-03-15T05:52:24.214Z,22.83
2023-03-15T05:53:24.197Z,22.87
2023-03-15T05:54:24.168Z,22.74
2023-03-15T05:55:24.135Z,22.81
2023-03-15T05:56:24.156Z,22.83
2023-03-15T05:57:24.098Z,22.80
2023-03-15T05:58:24.069Z,22.83
2023-03-15T05:59:24.045Z,22.87
2023-03-15T06:00:24.059Z,22.83
2023-03-15T06:01:24.010Z,22.78
2023-03-15T06:02:23.973Z,22.74
2023-03-15T06:03:23.988Z,22.78
2023-03-15T06:04:23.949Z,22.78
2023-03-15T06:05:23.924Z,22.69
2023-03-15T06:06:23.888Z,22.66
2023-03-15T06:07:23.852Z,22.69
2023-03-15T06:08:23.835Z,22.77
2023-03-15T06:09:23.813Z,22.72
2023-03-15T06:10:23.784Z,22.71
2023-03-15T06:11:23.761Z,22.72
2023-03-15T06:12:23.739Z,22.71
2023-03-15T06:13:23.722Z,22.72
2023-03-15T06:14:23.694Z,22.60
2023-03-15T06:15:23.673Z,22.59
2023-03-15T06:16:23.673Z,22.60
2023-03-15T06:17:23.613Z,22.51
2023-03-15T06:18:23.610Z,22.65
2023-03-15T06:19:23.585Z,22.63
2023-03-15T06:20:23.557Z,22.63
2023-03-15T06:21:23.534Z,22.63
2023-03-15T06:22:23.539Z,22.65
2023-03-15T06:23:23.508Z,22.60
2023-03-15T06:24:23.514Z,22.59
2023-03-15T06:25:23.562Z,22.66
2023-03-15T06:26:23.434Z,22.63
2023-03-15T06:27:23.504Z,22.65
2023-03-15T06:28:23.538Z,22.62
2023-03-15T06:29:24.036Z,22.66
2023-03-15T06:30:23.500Z,22.62
2023-03-15T06:31:23.363Z,22.59
2023-03-15T06:32:23.386Z,22.56
2023-03-15T06:33:23.285Z,22.47
2023-03-15T06:34:23.272Z,22.56
2023-03-15T06:35:23.253Z,23.02
2023-03-15T06:36:23.870Z,23.20
2023-03-15T06:37:34.666Z,23.35
2023-03-15T06:38:24.207Z,23.97
2023-03-15T06:39:23.185Z,24.08
2023-03-15T06:40:23.168Z,23.93
2023-03-15T06:41:23.129Z,24.27
2023-03-15T06:42:23.133Z,24.52
2023-03-15T06:43:23.088Z,25.33
2023-03-15T06:44:23.073Z,25.44
2023-03-15T06:45:23.046Z,25.63
2023-03-15T06:46:23.040Z,26.24
2023-03-15T06:47:23.045Z,26.26
2023-03-15T06:48:23.005Z,26.43
2023-03-15T06:49:22.975Z,26.50
2023-03-15T06:50:22.938Z,26.68
2023-03-15T06:51:22.961Z,26.58
2023-03-15T06:52:22.915Z,26.58
2023-03-15T06:53:22.875Z,26.36
2023-03-15T06:54:22.854Z,26.50
2023-03-15T06:55:22.871Z,26.63
2023-03-15T06:56:22.782Z,26.51
2023-03-15T06:57:22.916Z,26.59
2023-03-15T06:58:22.730Z,26.99
2023-03-15T06:59:22.708Z,26.66
2023-03-15T07:00:22.708Z,27.11
2023-03-15T07:01:22.748Z,27.28
2023-03-15T07:02:22.709Z,27.34
2023-03-15T07:03:22.622Z,27.36
2023-03-15T07:04:22.602Z,27.38
2023-03-15T07:05:22.623Z,27.37
2023-03-15T07:06:22.569Z,27.62
2023-03-15T07:07:22.527Z,27.79
2023-03-15T07:08:22.572Z,28.06
2023-03-15T07:09:22.468Z,28.01
2023-03-15T07:10:22.438Z,27.77
2023-03-15T07:11:22.392Z,27.93
2023-03-15T07:12:22.449Z,28.25
2023-03-15T07:13:22.329Z,28.22
2023-03-15T07:14:22.333Z,28.54
2023-03-15T07:15:22.366Z,28.21
2023-03-15T07:16:22.431Z,28.34
2023-03-15T07:17:22.205Z,27.99
2023-03-15T07:18:22.200Z,28.19
2023-03-15T07:19:22.140Z,28.22
2023-03-15T07:20:22.109Z,28.40
2023-03-15T07:21:22.138Z,28.60
2023-03-15T07:22:22.056Z,28.56
2023-03-15T07:23:22.326Z,28.58
2023-03-15T07:24:22.088Z,28.73
2023-03-15T07:25:22.044Z,28.78
2023-03-15T07:26:22.121Z,28.69
2023-03-15T07:27:22.074Z,28.36
2023-03-15T07:28:21.878Z,28.42
2023-03-15T07:29:22.844Z,28.60
2023-03-15T07:30:21.838Z,28.41
2023-03-15T07:31:21.851Z,28.49
2023-03-15T07:32:21.811Z,28.49
2023-03-15T07:33:21.841Z,28.62
2023-03-15T07:34:21.732Z,28.58
2023-03-15T07:54:21.875Z,22.83
2023-03-15T09:58:17.467Z,20.12
2023-03-15T09:59:17.446Z,20.17
2023-03-15T10:00:17.387Z,20.17
2023-03-15T10:01:17.370Z,20.14
2023-03-15T10:02:17.315Z,20.14
2023-03-15T10:03:17.294Z,20.21
2023-03-15T10:04:17.207Z,20.23
2023-03-15T10:05:17.179Z,20.31
2023-03-15T10:06:17.123Z,20.26
2023-03-15T10:07:17.088Z,20.29
2023-03-15T10:08:17.047Z,20.34
2023-03-15T10:09:17.018Z,20.34
2023-03-15T10:10:16.950Z,20.27
2023-03-15T10:11:16.917Z,20.22
2023-03-15T10:12:16.888Z,20.39
2023-03-15T10:13:16.848Z,20.32
2023-03-15T10:14:16.780Z,20.39
2023-03-15T10:15:16.767Z,20.40
2023-03-15T10:16:16.796Z,20.42
2023-03-15T10:17:16.653Z,20.41
2023-03-15T10:18:16.592Z,20.39
2023-03-15T10:19:16.560Z,20.33
2023-03-15T10:20:16.489Z,20.21
2023-03-15T10:21:16.489Z,20.41
2023-03-15T10:22:16.439Z,20.35
2023-03-15T10:23:16.360Z,20.11
2023-03-15T10:24:16.321Z,19.99
2023-03-15T10:25:16.273Z,19.81
2023-03-15T10:26:16.223Z,19.79
2023-03-15T10:27:16.219Z,19.87
2023-03-15T10:28:16.136Z,19.32
2023-03-15T10:29:16.113Z,19.73
2023-03-15T10:30:16.070Z,19.31
2023-03-15T10:31:22.203Z,19.73
2023-03-15T10:32:17.038Z,19.96
2023-03-15T10:33:15.924Z,19.42
2023-03-15T10:34:15.878Z,20.12
2023-03-15T10:35:16.035Z,19.73
2023-03-15T10:36:15.820Z,19.96
2023-03-15T10:37:15.822Z,20.05
2023-03-15T10:38:15.802Z,19.93
2023-03-15T10:39:15.723Z,15.01
2023-03-15T10:40:15.656Z,16.59
2023-03-15T10:41:23.420Z,17.88
2023-03-15T10:42:17.410Z,15.88
2023-03-15T10:43:15.589Z,17.67
2023-03-15T10:44:15.580Z,18.01
2023-03-15T10:45:15.532Z,18.56
2023-03-15T10:46:15.582Z,15.41
2023-03-15T10:47:23.668Z,16.62
2023-03-15T10:48:16.602Z,18.52
2023-03-15T10:49:15.719Z,20.12
2023-03-15T10:50:15.597Z,20.41
2023-03-15T10:51:15.611Z,23.25
2023-03-15T10:52:15.796Z,22.16
2023-03-15T10:53:15.672Z,22.31
2023-03-15T10:54:15.708Z,22.73
2023-03-15T10:55:15.656Z,22.65
2023-03-15T10:56:15.600Z,22.70
2023-03-15T10:57:15.710Z,22.71
2023-03-15T10:58:15.609Z,22.76
2023-03-15T10:59:15.574Z,22.94
2023-03-15T11:00:15.627Z,22.98
2023-03-15T11:01:15.501Z,23.24
2023-03-15T11:02:15.488Z,23.31
2023-03-15T11:03:15.604Z,23.35
2023-03-15T11:04:15.471Z,23.58
2023-03-15T11:05:15.438Z,23.57
2023-03-15T11:06:15.487Z,23.23
2023-03-15T11:07:15.489Z,23.56
2023-03-15T11:08:15.368Z,23.42
2023-03-15T11:09:15.304Z,23.54
2023-03-15T11:10:15.241Z,23.47
2023-03-15T11:11:15.307Z,23.63
2023-03-15T11:12:15.832Z,23.70
2023-03-15T11:13:15.135Z,23.54
2023-03-15T11:14:15.101Z,23.71
2023-03-15T11:15:15.072Z,23.56
2023-03-15T11:16:15.037Z,23.67
2023-03-15T11:17:14.978Z,23.47
2023-03-15T11:18:14.947Z,23.40
2023-03-15T11:19:14.909Z,23.73
2023-03-15T11:20:14.884Z,23.37
2023-03-15T11:21:14.815Z,23.76
2023-03-15T11:22:14.778Z,23.55
2023-03-15T11:23:14.744Z,23.69
2023-03-15T11:24:14.734Z,23.85
2023-03-15T11:25:14.653Z,23.55
2023-03-15T11:26:29.413Z,23.67
2023-03-15T11:27:14.598Z,23.89
2023-03-15T11:28:14.523Z,23.72
2023-03-15T11:29:14.730Z,23.90
2023-03-15T11:30:17.489Z,23.72
2023-03-15T11:31:14.444Z,23.87
2023-03-15T11:32:14.372Z,23.83
2023-03-15T11:33:14.319Z,23.98
2023-03-15T11:34:14.404Z,23.84
2023-03-15T11:35:14.257Z,23.80
2023-03-15T11:36:14.199Z,23.90
2023-03-15T11:37:14.158Z,23.58
2023-03-15T11:38:15.570Z,24.06
2023-03-15T11:39:14.106Z,23.97
2023-03-15T11:40:16.711Z,24.05
2023-03-15T11:41:14.096Z,24.06
2023-03-15T11:42:13.969Z,24.05
2023-03-15T11:43:13.928Z,24.08
2023-03-15T11:44:13.890Z,23.93
2023-03-15T11:45:13.829Z,23.82
2023-03-15T11:46:13.926Z,23.69
2023-03-15T11:47:13.767Z,23.69
2023-03-15T11:48:13.768Z,23.55
2023-03-15T11:49:13.668Z,23.43
2023-03-15T11:50:13.768Z,23.33
2023-03-15T11:51:13.607Z,23.06
2023-03-15T11:52:13.538Z,23.30
2023-03-15T11:53:13.506Z,23.36
2023-03-15T11:54:13.462Z,23.25
2023-03-15T11:55:13.405Z,22.89
2023-03-15T11:56:13.375Z,23.21
2023-03-15T11:57:13.386Z,22.76
2023-03-15T11:58:13.274Z,23.03
2023-03-15T11:59:13.264Z,22.90
2023-03-15T12:00:13.308Z,22.51
2023-03-15T12:01:13.141Z,23.54
2023-03-15T12:02:13.315Z,23.00
2023-03-15T12:03:13.969Z,22.15
2023-03-15T12:04:15.033Z,22.66
2023-03-15T12:05:18.229Z,22.81
2023-03-15T12:06:13.933Z,22.45
2023-03-15T12:07:12.904Z,22.39
2023-03-15T12:08:12.877Z,22.84
2023-03-15T12:09:12.809Z,22.51
2023-03-15T12:10:12.861Z,22.16
2023-03-15T12:11:12.708Z,22.13
2023-03-15T12:12:12.666Z,22.23
2023-03-15T12:13:12.696Z,21.86
2023-03-15T12:14:12.593Z,22.07
2023-03-15T12:15:12.627Z,21.90
2023-03-15T12:16:12.634Z,21.83
2023-03-15T12:17:12.511Z,21.77
2023-03-15T12:18:12.401Z,21.32
2023-03-15T12:19:12.347Z,22.00
2023-03-15T12:20:12.318Z,21.20
2023-03-15T12:21:12.284Z,21.49
2023-03-15T12:22:12.230Z,21.58
2023-03-15T12:23:12.220Z,22.01
2023-03-15T12:24:12.149Z,21.82
2023-03-15T12:25:12.225Z,21.85
2023-03-15T12:26:12.199Z,21.96
2023-03-15T12:27:12.101Z,21.37
2023-03-15T12:28:11.982Z,21.69
2023-03-15T12:29:11.969Z,21.70
2023-03-15T12:30:11.907Z,21.75
2023-03-15T12:31:11.903Z,21.41
2023-03-15T12:32:11.796Z,21.50
2023-03-15T12:33:11.763Z,21.35
2023-03-15T13:22:11.789Z,18.70
2023-03-15T13:23:11.694Z,18.62
2023-03-15T13:24:11.776Z,18.66
2023-03-15T13:25:11.758Z,18.53
2023-03-15T13:26:11.764Z,18.55
2023-03-15T13:27:11.840Z,18.33
2023-03-15T13:28:11.810Z,18.41
2023-03-15T13:29:11.832Z,18.51
2023-03-15T13:31:11.863Z,18.38
2023-03-15T13:32:11.871Z,18.24
2023-03-15T13:33:11.855Z,18.27
2023-03-15T13:34:11.858Z,18.28
2023-03-15T13:35:11.878Z,18.23
2023-03-15T13:36:11.897Z,18.13
2023-03-15T13:37:12.075Z,18.28
2023-03-15T13:38:11.926Z,18.33
2023-03-15T13:39:11.898Z,18.20
2023-03-15T13:40:12.034Z,18.15
2023-03-15T13:41:11.998Z,18.18
2023-03-15T13:42:11.931Z,18.18
2023-03-15T13:43:11.942Z,18.14
2023-03-15T13:44:11.944Z,17.99
2023-03-15T13:45:11.984Z,18.03
2023-03-15T13:46:12.006Z,18.14
2023-03-15T13:47:12.013Z,18.00
2023-03-15T13:48:13.286Z,18.00
2023-03-15T13:49:11.998Z,18.00
2023-03-15T13:50:12.004Z,17.99
2023-03-15T13:51:12.021Z,18.03
2023-03-15T13:52:12.076Z,17.99
2023-03-15T13:53:12.020Z,17.97
2023-03-15T13:54:12.050Z,17.68
2023-03-15T13:55:12.061Z,17.89
2023-03-15T13:56:12.069Z,17.84
2023-03-15T13:57:12.060Z,17.87
2023-03-15T13:58:12.110Z,17.86
2023-03-15T13:59:12.098Z,17.79
2023-03-15T14:00:12.101Z,17.80
2023-03-15T14:01:12.103Z,17.88
2023-03-15T14:02:12.158Z,17.70
2023-03-15T14:03:12.184Z,17.74
2023-03-15T14:04:12.146Z,17.73
2023-03-15T14:05:12.144Z,17.56
2023-03-15T14:06:12.201Z,17.68
2023-03-15T14:07:12.184Z,17.82
2023-03-15T14:08:12.150Z,17.69
2023-03-15T14:09:12.081Z,17.83
2023-03-15T14:10:12.056Z,17.72
2023-03-15T14:11:12.004Z,17.79
2023-03-15T14:12:11.949Z,17.64
2023-03-15T14:13:11.919Z,17.81
2023-03-15T14:14:11.888Z,17.84
2023-03-15T14:15:11.822Z,17.66
2023-03-15T14:16:11.846Z,17.73
2023-03-15T14:17:11.792Z,18.00
2023-03-15T14:33:12.013Z,18.25
2023-03-15T17:07:09.904Z,18.38
2023-03-15T17:08:09.932Z,18.29
2023-03-15T17:09:09.963Z,18.21
2023-03-15T17:10:10.008Z,18.21
2023-03-15T17:11:10.012Z,18.05
2023-03-15T17:12:10.038Z,18.19
2023-03-15T17:13:10.067Z,18.32
2023-03-15T17:14:10.101Z,18.23
2023-03-15T17:15:10.134Z,18.35
2023-03-15T17:16:10.188Z,18.29
2023-03-15T17:17:10.186Z,18.05
2023-03-15T17:18:10.210Z,18.15
2023-03-15T17:19:10.257Z,18.24
2023-03-15T17:20:10.292Z,18.20
2023-03-15T17:21:10.285Z,17.99
2023-03-15T17:22:10.314Z,18.26
2023-03-15T17:23:10.333Z,18.05
2023-03-15T17:24:10.360Z,18.20
2023-03-15T17:25:10.396Z,18.36
2023-03-15T17:26:10.406Z,18.14
2023-03-15T17:27:10.435Z,18.00
2023-03-15T17:28:10.467Z,17.96
2023-03-15T17:29:10.510Z,18.15
2023-03-15T17:30:10.532Z,18.21
2023-03-15T17:31:24.520Z,17.97
2023-03-15T17:32:11.630Z,18.12
2023-03-15T17:33:10.626Z,18.11
2023-03-15T17:34:10.461Z,17.97
2023-03-15T17:35:10.440Z,17.72
2023-03-15T17:36:10.413Z,18.14
2023-03-15T17:37:10.374Z,17.84
2023-03-15T17:38:10.344Z,18.09
2023-03-15T17:39:10.319Z,18.16
2023-03-15T17:40:10.282Z,18.16
2023-03-15T17:41:10.304Z,18.18
2023-03-15T17:42:10.224Z,18.05
2023-03-15T17:43:10.184Z,17.97
2023-03-15T17:44:10.224Z,18.18
2023-03-15T17:45:10.143Z,17.93
2023-03-15T17:46:10.095Z,18.15
2023-03-15T17:47:10.103Z,18.00
2023-03-15T17:48:10.065Z,17.91
2023-03-15T17:49:10.037Z,17.94
2023-03-15T17:50:09.993Z,18.24
2023-03-15T17:51:09.969Z,18.04
2023-03-15T17:52:09.937Z,18.25
2023-03-15T17:53:09.906Z,18.23
2023-03-15T17:54:09.878Z,18.28
2023-03-15T17:55:10.332Z,18.00
2023-03-15T17:56:09.812Z,18.00
2023-03-15T17:57:09.783Z,18.15
2023-03-15T17:58:09.765Z,18.10
2023-03-15T17:59:09.739Z,18.04
2023-03-15T18:00:09.714Z,18.01
2023-03-15T18:01:09.754Z,17.90
2023-03-15T18:02:09.659Z,18.07
2023-03-15T18:03:09.640Z,18.13
2023-03-15T18:04:09.690Z,18.16
2023-03-15T18:05:09.612Z,18.04
2023-03-15T18:06:09.579Z,18.07
2023-03-15T18:07:09.601Z,18.08
2023-03-15T18:08:09.517Z,18.02
2023-03-15T18:09:09.542Z,18.08
2023-03-15T18:10:09.586Z,18.20
2023-03-15T18:11:09.838Z,18.08
2023-03-15T18:12:09.408Z,18.04
2023-03-15T18:13:09.454Z,17.79
2023-03-15T18:14:10.083Z,17.86
2023-03-15T18:15:09.439Z,18.08
2023-03-15T18:16:09.412Z,18.14
2023-03-15T18:17:09.397Z,18.20
2023-03-15T18:18:09.241Z,18.14
2023-03-15T18:19:09.212Z,17.99
2023-03-15T18:20:09.185Z,18.25
2023-03-15T18:21:09.161Z,17.96
2023-03-15T18:22:09.147Z,18.04
2023-03-15T18:23:09.211Z,17.84
2023-03-15T18:24:09.124Z,18.16
2023-03-15T18:25:09.106Z,18.01
2023-03-15T18:26:09.097Z,18.20
2023-03-15T18:27:09.088Z,18.08
2023-03-15T18:28:08.977Z,18.23
2023-03-15T18:29:08.944Z,18.17
2023-03-15T18:30:08.931Z,18.20
2023-03-15T18:31:08.884Z,18.20
2023-03-15T18:32:08.910Z,18.11
2023-03-15T18:33:08.870Z,18.22
2023-03-15T18:34:08.786Z,17.98
2023-03-15T18:35:08.777Z,18.20
2023-03-15T18:36:08.911Z,17.95
2023-03-15T18:37:08.721Z,18.20
2023-03-15T18:38:08.693Z,18.05
2023-03-15T18:39:08.786Z,18.17
2023-03-15T18:40:08.671Z,18.20
2023-03-15T18:41:08.619Z,17.84
2023-03-15T18:42:08.613Z,18.10
2023-03-15T18:43:08.571Z,18.08
2023-03-15T18:44:08.532Z,18.16
2023-03-15T18:45:08.516Z,17.90
2023-03-15T18:46:08.540Z,18.16
2023-03-15T18:47:08.748Z,18.16
2023-03-15T18:48:08.421Z,18.05
2023-03-15T18:49:08.392Z,18.14
2023-03-15T18:50:10.484Z,18.11
2023-03-15T18:51:08.371Z,18.19
2023-03-15T18:52:08.471Z,17.95
2023-03-15T18:53:08.324Z,18.19
2023-03-15T18:54:08.306Z,18.19
2023-03-15T18:55:08.274Z,18.17
2023-03-15T18:56:08.242Z,18.14
2023-03-15T18:57:08.237Z,18.17
2023-03-15T18:58:08.279Z,18.22
2023-03-15T18:59:08.323Z,18.10
2023-03-15T19:00:08.382Z,18.18
2023-03-15T19:01:08.438Z,18.18
2023-03-15T19:02:08.423Z,18.14
2023-03-15T19:03:08.451Z,18.21
2023-03-15T19:04:08.509Z,18.17
2023-03-15T19:05:08.529Z,18.14
2023-03-15T19:06:08.793Z,18.22
2023-03-15T19:07:08.614Z,18.20
2023-03-15T19:08:08.636Z,18.04
2023-03-15T19:09:08.664Z,18.02
2023-03-15T19:10:08.697Z,18.15
2023-03-15T19:11:08.758Z,17.95
2023-03-15T19:12:08.756Z,18.11
2023-03-15T19:13:08.796Z,18.02
2023-03-15T19:14:08.813Z,18.25
2023-03-15T19:15:08.867Z,18.18
2023-03-15T19:16:08.889Z,18.22
2023-03-15T19:17:09.058Z,18.14
2023-03-15T19:18:08.968Z,18.18
2023-03-15T19:19:09.005Z,18.18
2023-03-15T19:20:09.064Z,18.20
2023-03-15T19:21:09.170Z,18.18
2023-03-15T19:22:09.141Z,18.15
2023-03-15T19:23:09.152Z,18.14
2023-03-15T19:24:09.187Z,18.21
2023-03-15T19:25:09.239Z,18.17
2023-03-15T19:26:09.289Z,18.11
2023-03-15T19:27:09.481Z,18.15
2023-03-15T19:28:09.484Z,18.18
2023-03-15T19:29:09.399Z,18.22
2023-03-15T19:30:09.506Z,18.20
2023-03-15T19:31:09.588Z,18.23
2023-03-15T19:32:09.502Z,18.12
2023-03-15T19:33:09.606Z,18.17
2023-03-15T19:34:09.593Z,18.15
2023-03-15T19:35:09.610Z,18.17
2023-03-15T19:36:09.792Z,18.23
2023-03-15T19:37:09.675Z,18.03
2023-03-15T19:38:09.708Z,18.12
2023-03-15T19:39:09.742Z,18.21
2023-03-15T19:40:09.776Z,18.17
2023-03-15T19:41:12.548Z,18.15
2023-03-15T19:42:09.808Z,18.23
2023-03-15T19:43:09.783Z,18.11
2023-03-15T19:44:09.768Z,18.21
2023-03-15T19:45:09.745Z,18.24
2023-03-15T19:46:09.812Z,18.23
2023-03-15T19:47:09.731Z,18.18
2023-03-15T19:48:09.720Z,18.18
2023-03-15T19:49:09.706Z,18.16
2023-03-15T19:50:09.686Z,18.14
2023-03-15T19:51:09.684Z,18.20
2023-03-15T19:52:09.669Z,18.23
2023-03-15T19:53:09.756Z,18.21
2023-03-15T19:54:09.663Z,18.10
2023-03-15T19:55:09.665Z,18.21
2023-03-15T19:56:09.657Z,18.09
2023-03-15T19:57:09.672Z,18.18
2023-03-15T19:58:09.639Z,18.21
2023-03-15T19:59:09.644Z,18.15
2023-03-15T20:00:09.623Z,18.15
2023-03-15T20:01:09.728Z,18.15
2023-03-15T20:02:09.607Z,18.21
2023-03-15T20:03:09.640Z,18.13
2023-03-15T20:04:09.658Z,18.26
2023-03-15T20:05:09.581Z,18.24
2023-03-15T20:06:09.585Z,18.21
2023-03-15T20:07:09.574Z,18.24
2023-03-15T20:08:09.557Z,18.18
2023-03-15T20:09:09.570Z,18.24
2023-03-15T20:10:09.554Z,18.20
2023-03-15T20:11:09.559Z,18.19
2023-03-15T20:12:09.554Z,18.24
2023-03-15T20:13:09.581Z,18.22
2023-03-15T20:14:09.531Z,18.26
2023-03-15T20:15:09.539Z,18.21
2023-03-15T20:16:10.245Z,18.21
2023-03-15T20:17:09.565Z,18.25
2023-03-15T20:18:09.516Z,18.21
2023-03-15T20:19:09.513Z,18.19
2023-03-15T20:20:09.485Z,18.12
2023-03-15T20:21:09.513Z,18.13
2023-03-15T20:22:09.487Z,18.25
2023-03-15T20:23:09.549Z,18.27
2023-03-15T20:24:09.537Z,18.22
2023-03-15T20:25:09.452Z,18.30
2023-03-15T20:26:09.343Z,18.25
2023-03-15T20:27:09.469Z,18.25
2023-03-15T20:28:09.343Z,18.22
2023-03-15T20:29:09.291Z,18.22
2023-03-15T20:30:09.263Z,18.33
2023-03-15T20:31:09.283Z,18.22
2023-03-15T20:32:09.286Z,18.27
2023-03-15T20:33:09.286Z,18.27
2023-03-15T20:34:09.277Z,18.22
2023-03-15T20:35:09.448Z,18.30
2023-03-15T20:36:09.287Z,18.21
2023-03-15T20:37:09.176Z,18.25
2023-03-15T20:38:09.144Z,18.24
2023-03-15T20:39:09.123Z,18.27
2023-03-15T20:40:09.136Z,18.24
2023-03-15T20:41:09.032Z,18.33
2023-03-15T20:42:09.035Z,18.22
2023-03-15T20:43:11.215Z,18.27
2023-03-15T20:44:08.993Z,18.25
2023-03-15T20:45:08.965Z,18.33
2023-03-15T20:46:08.940Z,18.21
2023-03-15T20:47:08.980Z,18.30
2023-03-15T20:48:08.900Z,18.16
2023-03-15T20:49:08.877Z,18.27
2023-03-15T20:50:08.872Z,18.24
2023-03-15T20:51:08.837Z,18.27
2023-03-15T20:52:08.835Z,18.28
2023-03-15T20:53:08.844Z,18.31
2023-03-15T20:54:08.886Z,18.28
2023-03-15T20:55:08.930Z,18.25
2023-03-15T20:56:08.964Z,18.28
2023-03-15T20:57:09.018Z,18.25
2023-03-15T20:58:09.051Z,18.27
2023-03-15T20:59:09.216Z,18.30
2023-03-15T21:00:09.160Z,18.28
2023-03-15T21:01:09.261Z,18.33
2023-03-15T21:02:09.221Z,18.24
2023-03-15T21:03:09.281Z,18.31
2023-03-15T21:04:09.300Z,18.34
2023-03-15T21:05:09.338Z,18.33
2023-03-15T21:06:09.466Z,18.19
2023-03-15T21:07:09.475Z,18.23
2023-03-15T21:08:09.503Z,18.32
2023-03-15T21:09:09.550Z,18.31
2023-03-15T21:10:09.584Z,17.98
2023-03-15T21:11:09.567Z,18.23
2023-03-15T21:12:09.647Z,18.29
2023-03-15T21:13:10.333Z,18.29
2023-03-15T21:14:09.640Z,18.40
2023-03-15T21:15:09.615Z,18.34
2023-03-15T21:16:09.624Z,18.34
2023-03-15T21:17:09.598Z,18.34
2023-03-15T21:18:09.583Z,18.36
2023-03-15T21:19:09.551Z,18.40
2023-03-15T21:20:09.588Z,18.37
2023-03-15T21:21:09.530Z,18.37
2023-03-15T21:22:09.604Z,18.43
2023-03-15T21:23:09.595Z,18.39
2023-03-15T21:24:09.629Z,18.38
2023-03-15T21:25:09.660Z,18.40
2023-03-15T21:26:09.718Z,18.31
2023-03-15T21:27:09.791Z,18.38
2023-03-15T21:28:09.802Z,18.34
2023-03-15T21:29:09.823Z,18.37
2023-03-15T21:30:09.892Z,18.33
2023-03-15T21:31:09.935Z,18.37
2023-03-15T21:32:09.941Z,18.37
2023-03-15T21:33:09.994Z,18.34
2023-03-15T21:34:10.009Z,18.35
2023-03-15T21:35:10.045Z,18.34
2023-03-15T21:36:10.096Z,18.28
2023-03-15T21:37:10.122Z,18.38
2023-03-15T21:38:10.151Z,18.37
2023-03-15T21:39:10.191Z,18.22
2023-03-15T21:40:10.257Z,18.28
2023-03-15T21:41:10.281Z,18.37
2023-03-15T21:42:10.328Z,18.39
2023-03-15T21:43:10.401Z,18.40
2023-03-15T21:44:10.380Z,18.35
2023-03-15T21:45:10.436Z,18.41
2023-03-15T21:46:10.580Z,18.46
2023-03-15T21:47:10.505Z,18.44
2023-03-15T21:48:10.563Z,18.39
2023-03-15T21:49:10.595Z,18.38
2023-03-15T21:50:10.614Z,18.39
2023-03-15T21:51:11.182Z,18.39
2023-03-15T21:52:10.648Z,18.33
2023-03-15T21:53:10.619Z,18.39
2023-03-15T21:54:10.591Z,18.35
2023-03-15T21:55:10.571Z,18.36
2023-03-15T21:56:10.573Z,18.33
2023-03-15T21:57:10.529Z,18.35
2023-03-15T21:58:10.557Z,18.35
2023-03-15T21:59:10.565Z,18.32
2023-03-15T22:00:10.603Z,18.28
2023-03-15T22:01:10.713Z,18.35
2023-03-15T22:02:10.688Z,18.38
2023-03-15T22:03:10.733Z,18.28
2023-03-15T22:04:10.796Z,18.38
2023-03-15T22:05:10.798Z,18.33
2023-03-15T22:06:10.834Z,18.31
2023-03-15T22:07:10.881Z,18.32
2023-03-15T22:08:10.960Z,18.37
2023-03-15T22:09:10.954Z,18.31
2023-03-15T22:10:11.024Z,18.38
2023-03-15T22:11:11.041Z,18.41
2023-03-15T22:12:11.614Z,18.39
2023-03-15T22:13:11.062Z,18.39
2023-03-15T22:14:11.041Z,18.36
2023-03-15T22:15:11.019Z,18.38
2023-03-15T22:16:10.998Z,18.35
2023-03-15T22:17:11.048Z,18.35
2023-03-15T22:18:10.950Z,18.38
2023-03-15T22:19:10.930Z,18.42
2023-03-15T22:20:10.908Z,18.41
2023-03-15T22:21:10.883Z,18.39
2023-03-15T22:22:10.868Z,18.38
2023-03-15T22:23:10.843Z,18.38
2023-03-15T22:24:10.846Z,18.39
2023-03-15T22:25:10.814Z,18.38
2023-03-15T22:26:10.803Z,18.26
2023-03-15T22:27:10.783Z,18.35
2023-03-15T22:28:10.768Z,18.41
2023-03-15T22:29:10.753Z,18.45
2023-03-15T22:30:10.738Z,18.42
2023-03-15T22:31:10.804Z,18.44
2023-03-15T22:32:10.691Z,18.39
2023-03-15T22:33:10.692Z,18.39
2023-03-15T22:34:10.680Z,18.45
2023-03-15T22:35:10.626Z,18.41
2023-03-15T22:36:10.613Z,18.38
2023-03-15T22:37:10.594Z,18.41
2023-03-15T22:38:10.593Z,18.41
2023-03-15T22:39:10.568Z,18.36
2023-03-15T22:40:10.558Z,18.33
2023-03-15T22:41:10.571Z,18.41
2023-03-15T22:42:10.500Z,18.23
2023-03-15T22:43:10.477Z,18.36
2023-03-15T22:44:10.475Z,18.45
2023-03-15T22:45:10.436Z,18.41
2023-03-15T22:46:10.471Z,18.48
2023-03-15T22:47:10.397Z,18.47
2023-03-15T22:48:10.380Z,18.44
2023-03-15T22:49:10.349Z,18.41
2023-03-15T22:50:10.351Z,18.44
2023-03-15T22:51:10.319Z,18.47
2023-03-15T22:52:10.287Z,18.51
2023-03-15T22:53:10.270Z,18.45
2023-03-15T22:54:10.257Z,18.44
2023-03-15T22:55:10.228Z,18.50
2023-03-15T22:56:10.228Z,18.44
2023-03-15T22:57:10.182Z,18.50
2023-03-15T22:58:10.171Z,18.48
2023-03-15T22:59:10.124Z,18.45
2023-03-15T23:00:10.109Z,18.42
2023-03-15T23:01:10.131Z,18.44
2023-03-15T23:02:10.048Z,18.53
2023-03-15T23:03:10.034Z,18.45
2023-03-15T23:04:10.037Z,18.50
2023-03-15T23:05:09.983Z,18.54
2023-03-15T23:06:09.964Z,18.48
2023-03-15T23:07:09.945Z,18.53
2023-03-15T23:08:09.905Z,18.54
2023-03-15T23:09:09.894Z,18.53
2023-03-15T23:10:09.887Z,18.43
2023-03-15T23:11:09.843Z,18.53
2023-03-15T23:12:09.825Z,18.54
2023-03-15T23:13:09.802Z,18.59
2023-03-15T23:14:09.779Z,18.51
2023-03-15T23:15:09.774Z,18.40
2023-03-15T23:16:09.802Z,18.55
2023-03-15T23:17:09.713Z,18.45
2023-03-15T23:18:09.716Z,18.54
2023-03-15T23:19:09.680Z,18.51
2023-03-15T23:20:09.656Z,18.54
2023-03-15T23:21:09.648Z,18.59
2023-03-15T23:22:09.621Z,18.48
2023-03-15T23:23:09.718Z,18.53
2023-03-15T23:24:09.590Z,18.55
2023-03-15T23:25:09.559Z,18.59
2023-03-15T23:26:09.542Z,18.58
2023-03-15T23:27:09.717Z,18.51
2023-03-15T23:28:09.511Z,18.45
2023-03-15T23:29:09.495Z,18.55
2023-03-15T23:30:09.666Z,18.57
2023-03-15T23:31:09.494Z,18.57
2023-03-15T23:32:09.540Z,18.40
2023-03-15T23:33:09.431Z,18.57
2023-03-15T23:34:09.337Z,18.55
2023-03-15T23:35:09.317Z,18.59
2023-03-15T23:36:09.318Z,18.60
2023-03-15T23:37:09.283Z,18.55
2023-03-15T23:38:09.272Z,18.61
2023-03-15T23:39:09.248Z,18.57
2023-03-15T23:40:09.227Z,18.58
2023-03-15T23:41:09.213Z,18.54
2023-03-15T23:42:09.312Z,18.60
2023-03-15T23:43:09.199Z,18.63
2023-03-15T23:44:09.170Z,18.54
2023-03-15T23:45:09.119Z,18.55